createdAt,value
2018-11-05T00:00:54.165Z,11.23
2018-11-05T00:03:24.422Z,11.26
2018-11-05T00:05:54.829Z,11.23
2018-11-05T00:08:25.167Z,11.22
2018-11-05T00:10:55.481Z,11.25
2018-11-05T00:13:25.810Z,11.25
2018-11-05T00:15:56.208Z,11.24
2018-11-05T00:18:26.509Z,11.23
2018-11-05T00:20:56.920Z,11.20
2018-11-05T00:23:27.253Z,11.19
2018-11-05T00:25:57.735Z,11.21
2018-11-05T00:28:28.013Z,11.21
2018-11-05T00:30:58.435Z,11.21
2018-11-05T00:33:28.778Z,11.22
2018-11-05T00:35:59.130Z,11.25
2018-11-05T00:38:29.485Z,11.25
2018-11-05T00:40:59.891Z,11.26
2018-11-05T00:43:30.246Z,11.26
2018-11-05T00:46:00.527Z,11.27
2018-11-05T00:48:30.724Z,11.29
2018-11-05T00:51:01.052Z,11.30
2018-11-05T00:53:31.374Z,11.28
2018-11-05T00:56:01.726Z,11.30
2018-11-05T00:58:31.988Z,11.32
2018-11-05T01:01:02.637Z,11.32
2018-11-05T01:03:33.014Z,11.30
2018-11-05T01:06:03.366Z,11.27
2018-11-05T01:08:33.677Z,11.26
2018-11-05T01:11:04.000Z,11.29
2018-11-05T01:13:34.321Z,11.28
2018-11-05T01:16:04.787Z,11.30
2018-11-05T01:18:35.102Z,11.29
2018-11-05T01:21:05.995Z,11.30
2018-11-05T01:23:36.329Z,11.29
2018-11-05T01:26:06.668Z,11.30
2018-11-05T01:28:37.020Z,11.32
2018-11-05T01:31:07.451Z,11.32
2018-11-05T01:33:37.808Z,11.34
2018-11-05T01:36:08.189Z,11.33
2018-11-05T01:38:38.492Z,11.35
2018-11-05T01:41:08.811Z,11.35
2018-11-05T01:43:39.083Z,11.37
2018-11-05T01:46:09.522Z,11.37
2018-11-05T01:48:39.871Z,11.39
2018-11-05T01:51:10.247Z,11.38
2018-11-05T01:53:40.595Z,11.36
2018-11-05T01:56:10.988Z,11.36
2018-11-05T01:58:41.401Z,11.36
2018-11-05T02:01:11.807Z,11.34
2018-11-05T02:03:42.225Z,11.34
2018-11-05T02:06:12.459Z,11.36
2018-11-05T02:08:42.727Z,11.37
2018-11-05T02:11:13.100Z,11.36
2018-11-05T02:13:43.405Z,11.37
2018-11-05T02:16:13.732Z,11.37
2018-11-05T02:18:44.001Z,11.34
2018-11-05T02:21:14.335Z,11.32
2018-11-05T02:23:44.717Z,11.32
2018-11-05T02:26:15.064Z,11.31
2018-11-05T02:28:45.273Z,11.28
2018-11-05T02:31:15.506Z,11.27
2018-11-05T02:33:45.787Z,11.27
2018-11-05T02:36:16.107Z,11.28
2018-11-05T02:38:46.402Z,11.29
2018-11-05T02:41:16.700Z,11.28
2018-11-05T02:43:47.014Z,11.26
2018-11-05T02:46:19.344Z,11.21
2018-11-05T02:48:49.614Z,11.14
2018-11-05T02:51:19.990Z,11.05
2018-11-05T02:53:50.306Z,10.97
2018-11-05T02:56:20.684Z,10.89
2018-11-05T02:58:50.945Z,10.82
2018-11-05T03:01:21.261Z,10.74
2018-11-05T03:03:51.559Z,10.64
2018-11-05T03:06:21.889Z,10.57
2018-11-05T03:08:52.246Z,10.49
2018-11-05T03:11:22.571Z,10.37
2018-11-05T03:13:52.905Z,10.30
2018-11-05T03:16:23.175Z,10.23
2018-11-05T03:18:53.475Z,10.16
2018-11-05T03:21:23.777Z,10.12
2018-11-05T03:23:54.169Z,10.05
2018-11-05T03:26:24.474Z,10.02
2018-11-05T03:28:54.834Z,10.00
2018-11-05T03:31:25.109Z,10.01
2018-11-05T03:33:55.307Z,10.01
2018-11-05T03:36:25.902Z,10.00
2018-11-05T03:38:56.187Z,9.98
2018-11-05T03:41:26.503Z,9.91
2018-11-05T03:43:56.799Z,9.82
2018-11-05T03:46:27.182Z,9.77
2018-11-05T03:48:57.674Z,9.71
2018-11-05T03:51:27.947Z,9.64
2018-11-05T03:53:58.256Z,9.55
2018-11-05T03:56:28.601Z,9.53
2018-11-05T03:58:58.874Z,9.51
2018-11-05T04:01:29.167Z,9.44
2018-11-05T04:03:59.497Z,9.36
2018-11-05T04:06:32.231Z,9.34
2018-11-05T04:09:03.029Z,9.28
2018-11-05T04:11:33.466Z,9.19
2018-11-05T04:14:03.934Z,9.17
2018-11-05T04:16:34.485Z,9.18
2018-11-05T04:19:04.938Z,9.14
2018-11-05T04:21:40.496Z,9.09
2018-11-05T04:24:11.699Z,9.00
2018-11-05T04:26:43.187Z,8.98
2018-11-05T04:29:14.939Z,8.89
2018-11-05T04:31:45.382Z,8.82
2018-11-05T04:34:15.637Z,8.78
2018-11-05T04:36:45.993Z,8.74
2018-11-05T04:39:16.751Z,8.72
2018-11-05T04:41:47.067Z,8.72
2018-11-05T04:44:17.358Z,8.72
2018-11-05T04:46:47.677Z,8.72
2018-11-05T04:49:18.039Z,8.68
2018-11-05T04:51:48.374Z,8.65
2018-11-05T04:54:18.672Z,8.62
2018-11-05T04:56:48.931Z,8.61
2018-11-05T04:59:19.192Z,8.69
2018-11-05T05:01:49.590Z,8.70
2018-11-05T05:04:19.942Z,8.70
2018-11-05T05:06:50.256Z,8.66
2018-11-05T05:09:20.605Z,8.63
2018-11-05T05:11:50.916Z,8.58
2018-11-05T05:14:22.102Z,8.60
2018-11-05T05:16:52.371Z,8.55
2018-11-05T05:19:22.592Z,8.47
2018-11-05T05:21:52.944Z,8.43
2018-11-05T05:24:23.258Z,8.36
2018-11-05T05:26:53.614Z,8.31
2018-11-05T05:29:23.874Z,8.30
2018-11-05T05:31:54.172Z,8.32
2018-11-05T05:34:24.472Z,8.33
2018-11-05T05:36:56.380Z,8.28
2018-11-05T05:39:26.674Z,8.24
2018-11-05T05:41:56.954Z,8.20
2018-11-05T05:44:27.191Z,8.19
2018-11-05T05:46:57.466Z,8.19
2018-11-05T05:49:27.695Z,8.19
2018-11-05T05:51:58.017Z,8.26
2018-11-05T05:54:28.195Z,8.29
2018-11-05T05:56:58.473Z,8.27
2018-11-05T05:59:28.759Z,8.25
2018-11-05T06:01:59.053Z,8.23
2018-11-05T06:04:29.307Z,8.28
2018-11-05T06:06:59.654Z,8.30
2018-11-05T06:09:30.057Z,8.32
2018-11-05T06:12:00.407Z,8.31
2018-11-05T06:14:30.624Z,8.34
2018-11-05T06:17:00.819Z,8.33
2018-11-05T06:19:31.111Z,8.33
2018-11-05T06:22:02.107Z,8.34
2018-11-05T06:24:32.306Z,8.35
2018-11-05T06:27:02.789Z,8.34
2018-11-05T06:29:33.074Z,8.37
2018-11-05T06:32:03.376Z,8.32
2018-11-05T06:34:33.668Z,8.26
2018-11-05T06:37:04.126Z,8.23
2018-11-05T06:39:34.429Z,8.33
2018-11-05T06:42:05.254Z,8.34
2018-11-05T06:44:35.671Z,8.41
2018-11-05T06:47:06.015Z,8.44
2018-11-05T06:49:36.468Z,8.45
2018-11-05T06:52:06.889Z,8.54
2018-11-05T06:54:37.372Z,8.56
2018-11-05T06:57:08.185Z,8.69
2018-11-05T06:59:38.506Z,8.78
2018-11-05T07:02:09.113Z,8.78
2018-11-05T07:04:39.378Z,8.83
2018-11-05T07:07:09.843Z,8.89
2018-11-05T07:09:40.214Z,8.99
2018-11-05T07:12:10.540Z,9.00
2018-11-05T07:14:40.833Z,9.04
2018-11-05T07:17:11.153Z,9.08
2018-11-05T07:19:41.443Z,9.17
2018-11-05T07:22:11.901Z,9.32
2018-11-05T07:24:42.381Z,9.52
2018-11-05T07:27:12.733Z,9.71
2018-11-05T07:29:42.961Z,9.91
2018-11-05T07:32:13.401Z,10.03
2018-11-05T07:34:44.467Z,10.23
2018-11-05T07:37:14.887Z,10.38
2018-11-05T07:39:45.117Z,10.55
2018-11-05T07:42:15.557Z,10.73
2018-11-05T07:44:45.791Z,10.98
2018-11-05T07:47:16.123Z,11.22
2018-11-05T07:49:46.475Z,11.38
2018-11-05T07:52:16.797Z,11.59
2018-11-05T07:54:47.075Z,11.82
2018-11-05T07:57:17.452Z,11.99
2018-11-05T07:59:47.887Z,12.12
2018-11-05T08:02:18.319Z,12.15
2018-11-05T08:04:48.564Z,12.17
2018-11-05T08:07:19.021Z,12.32
2018-11-05T08:09:49.417Z,12.42
2018-11-05T08:12:19.724Z,12.38
2018-11-05T08:14:50.092Z,12.35
2018-11-05T08:17:20.507Z,12.42
2018-11-05T08:19:50.849Z,12.35
2018-11-05T08:22:21.203Z,12.40
2018-11-05T08:24:51.599Z,12.51
2018-11-05T08:27:22.015Z,12.61
2018-11-05T08:29:52.424Z,12.67
2018-11-05T08:32:24.185Z,12.79
2018-11-05T08:34:54.441Z,12.90
2018-11-05T08:37:24.825Z,13.00
2018-11-05T08:39:55.152Z,13.17
2018-11-05T08:42:25.497Z,13.26
2018-11-05T08:44:55.788Z,13.33
2018-11-05T08:47:26.307Z,13.41
2018-11-05T08:49:56.583Z,13.45
2018-11-05T08:52:26.980Z,13.46
2018-11-05T08:54:57.931Z,13.61
2018-11-05T08:57:29.020Z,13.72
2018-11-05T08:59:59.808Z,13.81
2018-11-05T09:02:30.529Z,14.00
2018-11-05T09:05:01.472Z,14.07
2018-11-05T09:07:32.140Z,14.22
2018-11-05T09:10:03.190Z,14.36
2018-11-05T09:12:34.224Z,14.46
2018-11-05T09:15:05.191Z,14.55
2018-11-05T09:17:36.079Z,14.68
2018-11-05T09:20:08.417Z,14.85
2018-11-05T09:22:39.446Z,14.99
2018-11-05T09:25:11.796Z,14.92
2018-11-05T09:27:42.780Z,14.94
2018-11-05T09:30:17.103Z,14.91
2018-11-05T09:32:48.275Z,14.86
2018-11-05T09:35:18.902Z,14.67
2018-11-05T09:37:50.025Z,14.57
2018-11-05T09:40:22.250Z,14.51
2018-11-05T09:42:53.089Z,14.53
2018-11-05T09:45:27.686Z,14.54
2018-11-05T09:47:58.481Z,14.61
2018-11-05T09:50:29.447Z,14.63
2018-11-05T09:53:00.172Z,14.75
2018-11-05T09:55:31.022Z,14.76
2018-11-05T09:58:01.691Z,14.71
2018-11-05T10:00:32.266Z,14.65
2018-11-05T10:03:07.339Z,14.66
2018-11-05T10:05:38.082Z,14.70
2018-11-05T10:08:08.718Z,14.70
2018-11-05T10:10:39.593Z,14.73
2018-11-05T10:13:10.142Z,14.76
2018-11-05T10:15:40.763Z,14.79
2018-11-05T10:18:11.500Z,14.79
2018-11-05T10:20:42.152Z,14.76
2018-11-05T10:23:13.418Z,14.79
2018-11-05T10:25:44.256Z,14.82
2018-11-05T10:28:15.073Z,14.87
2018-11-05T10:30:45.902Z,14.95
2018-11-05T10:33:16.459Z,15.01
2018-11-05T10:35:52.628Z,15.07
2018-11-05T10:38:23.323Z,15.03
2018-11-05T10:40:53.929Z,15.03
2018-11-05T10:43:24.172Z,15.10
2018-11-05T10:45:54.442Z,15.11
2018-11-05T10:48:24.941Z,15.12
2018-11-05T10:50:55.285Z,15.08
2018-11-05T10:53:25.533Z,15.22
2018-11-05T10:55:55.787Z,15.37
2018-11-05T10:58:26.080Z,15.49
2018-11-05T11:01:01.703Z,15.65
2018-11-05T11:03:36.292Z,15.73
2018-11-05T11:06:08.008Z,15.86
2018-11-05T11:08:38.234Z,15.88
2018-11-05T11:11:08.589Z,15.95
2018-11-05T11:13:38.946Z,15.99
2018-11-05T11:16:09.379Z,16.08
2018-11-05T11:18:39.691Z,16.10
2018-11-05T11:21:09.997Z,16.06
2018-11-05T11:23:40.224Z,16.12
2018-11-05T11:26:10.461Z,16.25
2018-11-05T11:28:40.793Z,16.25
2018-11-05T11:31:10.989Z,16.21
2018-11-05T11:33:41.355Z,16.02
2018-11-05T11:36:11.639Z,16.13
2018-11-05T11:38:41.919Z,16.15
2018-11-05T11:41:12.219Z,16.28
2018-11-05T11:43:42.681Z,16.07
2018-11-05T11:46:13.030Z,16.12
2018-11-05T11:48:43.376Z,16.37
2018-11-05T11:51:13.673Z,16.66
2018-11-05T11:53:43.999Z,16.88
2018-11-05T11:56:14.321Z,16.95
2018-11-05T11:58:44.628Z,17.89
2018-11-05T12:01:14.798Z,19.67
2018-11-05T12:03:45.123Z,21.80
2018-11-05T12:06:15.411Z,22.09
2018-11-05T12:08:45.634Z,21.38
2018-11-05T12:11:15.878Z,22.36
2018-11-05T12:14:24.941Z,23.47
2018-11-05T12:16:55.179Z,26.56
2018-11-05T12:19:25.498Z,25.39
2018-11-05T12:21:55.876Z,24.56
2018-11-05T12:24:26.285Z,24.45
2018-11-05T12:26:56.567Z,23.52
2018-11-05T12:29:26.884Z,23.89
2018-11-05T12:31:57.277Z,24.93
2018-11-05T12:34:27.681Z,25.60
2018-11-05T12:36:58.280Z,26.15
2018-11-05T12:39:28.578Z,25.48
2018-11-05T12:41:58.931Z,24.78
2018-11-05T12:44:29.323Z,24.45
2018-11-05T12:46:59.735Z,24.40
2018-11-05T12:49:30.099Z,23.73
2018-11-05T12:52:00.477Z,24.45
2018-11-05T12:54:30.747Z,24.61
2018-11-05T12:57:01.233Z,23.55
2018-11-05T12:59:31.638Z,22.95
2018-11-05T13:02:01.896Z,24.60
2018-11-05T13:04:32.259Z,25.52
2018-11-05T13:07:02.700Z,27.14
2018-11-05T13:09:33.059Z,26.31
2018-11-05T13:12:03.431Z,25.47
2018-11-05T13:14:33.864Z,25.79
2018-11-05T13:17:04.533Z,26.23
2018-11-05T13:19:34.874Z,26.92
2018-11-05T13:22:05.671Z,26.40
2018-11-05T13:24:36.142Z,26.41
2018-11-05T13:27:06.546Z,25.92
2018-11-05T13:29:36.904Z,25.53
2018-11-05T13:32:07.514Z,25.29
2018-11-05T13:34:37.897Z,25.07
2018-11-05T13:37:08.448Z,24.28
2018-11-05T13:39:38.606Z,25.09
2018-11-05T13:42:09.094Z,26.08
2018-11-05T13:44:39.447Z,26.03
2018-11-05T13:47:10.487Z,26.41
2018-11-05T13:49:40.316Z,25.79
2018-11-05T13:52:13.364Z,24.47
2018-11-05T13:54:43.995Z,23.59
2018-11-05T13:57:14.195Z,24.19
2018-11-05T13:59:44.783Z,23.83
2018-11-05T14:02:15.210Z,24.51
2018-11-05T14:04:45.529Z,24.72
2018-11-05T14:07:16.010Z,24.32
2018-11-05T14:09:46.441Z,24.57
2018-11-05T14:12:16.812Z,24.08
2018-11-05T14:14:47.266Z,24.28
2018-11-05T14:17:17.622Z,22.97
2018-11-05T14:19:47.991Z,22.31
2018-11-05T14:22:18.524Z,22.42
2018-11-05T14:24:48.836Z,22.70
2018-11-05T14:27:19.175Z,21.92
2018-11-05T14:29:50.153Z,21.47
2018-11-05T14:32:20.211Z,21.47
2018-11-05T14:34:50.526Z,21.37
2018-11-05T14:37:21.398Z,21.36
2018-11-05T14:39:51.795Z,20.99
2018-11-05T14:42:22.385Z,21.07
2018-11-05T14:44:52.663Z,20.83
2018-11-05T14:47:22.982Z,20.56
2018-11-05T14:49:53.405Z,20.38
2018-11-05T14:52:23.956Z,20.04
2018-11-05T14:54:59.716Z,19.95
2018-11-05T14:57:30.866Z,20.07
2018-11-05T15:00:01.308Z,20.59
2018-11-05T15:02:39.233Z,21.25
2018-11-05T15:05:10.828Z,21.74
2018-11-05T15:07:42.126Z,21.79
2018-11-05T15:10:14.266Z,21.36
2018-11-05T15:12:44.766Z,20.32
2018-11-05T15:15:16.438Z,19.00
2018-11-05T15:17:48.078Z,18.34
2018-11-05T15:20:19.775Z,17.91
2018-11-05T15:22:50.068Z,17.65
2018-11-05T15:25:21.149Z,17.35
2018-11-05T15:27:51.605Z,17.13
2018-11-05T15:30:23.072Z,16.94
2018-11-05T15:32:53.437Z,16.79
2018-11-05T15:35:23.717Z,16.63
2018-11-05T15:37:54.026Z,16.47
2018-11-05T15:40:24.404Z,16.33
2018-11-05T15:42:54.797Z,16.14
2018-11-05T15:45:25.156Z,15.97
2018-11-05T15:47:55.513Z,15.80
2018-11-05T15:50:25.909Z,15.63
2018-11-05T15:52:58.955Z,15.49
2018-11-05T15:55:29.145Z,15.37
2018-11-05T15:57:59.420Z,15.26
2018-11-05T16:00:29.738Z,15.15
2018-11-05T16:03:01.320Z,15.03
2018-11-05T16:05:31.672Z,14.91
2018-11-05T16:08:01.992Z,14.79
2018-11-05T16:10:32.259Z,14.71
2018-11-05T16:13:02.594Z,14.57
2018-11-05T16:15:32.891Z,14.49
2018-11-05T16:18:03.288Z,14.35
2018-11-05T16:20:33.573Z,14.20
2018-11-05T16:23:03.903Z,14.05
2018-11-05T16:25:34.270Z,13.95
2018-11-05T16:28:04.891Z,13.91
2018-11-05T16:30:35.357Z,13.90
2018-11-05T16:33:05.673Z,13.87
2018-11-05T16:35:44.549Z,13.78
2018-11-05T16:38:17.779Z,13.68
2018-11-05T16:40:48.496Z,13.52
2018-11-05T16:43:20.595Z,13.38
2018-11-05T16:45:51.020Z,13.24
2018-11-05T16:48:21.199Z,13.23
2018-11-05T16:50:51.595Z,13.21
2018-11-05T16:53:21.892Z,13.17
2018-11-05T16:55:52.227Z,13.09
2018-11-05T16:58:22.793Z,13.02
2018-11-05T17:00:53.227Z,12.92
2018-11-05T17:03:23.421Z,12.87
2018-11-05T17:05:53.694Z,12.84
2018-11-05T17:08:24.013Z,12.79
2018-11-05T17:10:54.329Z,12.76
2018-11-05T17:13:26.020Z,12.61
2018-11-05T17:15:56.176Z,12.46
2018-11-05T17:18:26.533Z,12.35
2018-11-05T17:20:56.879Z,12.29
2018-11-05T17:23:27.234Z,12.19
2018-11-05T17:25:57.702Z,12.10
2018-11-05T17:28:28.029Z,12.02
2018-11-05T17:30:58.476Z,11.99
2018-11-05T17:33:28.876Z,11.92
2018-11-05T17:36:00.583Z,11.80
2018-11-05T17:38:31.015Z,11.70
2018-11-05T17:41:01.341Z,11.57
2018-11-05T17:43:31.644Z,11.46
2018-11-05T17:46:02.038Z,11.42
2018-11-05T17:48:32.688Z,11.42
2018-11-05T17:51:03.064Z,11.32
2018-11-05T17:53:36.388Z,11.30
2018-11-05T17:56:07.098Z,11.21
2018-11-05T17:58:37.339Z,11.16
2018-11-05T18:01:07.930Z,11.12
2018-11-05T18:03:38.251Z,11.18
2018-11-05T18:06:10.414Z,11.22
2018-11-05T18:08:40.711Z,11.11
2018-11-05T18:11:11.049Z,11.05
2018-11-05T18:13:41.355Z,10.93
2018-11-05T18:16:11.987Z,10.97
2018-11-05T18:18:45.308Z,10.94
2018-11-05T18:21:15.693Z,10.88
2018-11-05T18:23:45.934Z,10.85
2018-11-05T18:26:16.651Z,10.80
2018-11-05T18:28:46.942Z,10.79
2018-11-05T18:31:17.452Z,10.75
2018-11-05T18:33:47.800Z,10.69
2018-11-05T18:36:18.236Z,10.64
2018-11-05T18:38:48.486Z,10.59
2018-11-05T18:41:18.992Z,10.61
2018-11-05T18:43:49.330Z,10.61
2018-11-05T18:46:19.762Z,10.58
2018-11-05T18:48:49.995Z,10.51
2018-11-05T18:51:20.405Z,10.47
2018-11-05T18:53:50.739Z,10.48
2018-11-05T18:56:21.329Z,10.42
2018-11-05T18:58:51.630Z,10.33
2018-11-05T19:01:22.018Z,10.26
2018-11-05T19:03:58.855Z,10.22
2018-11-05T19:10:01.942Z,10.23
2018-11-05T19:12:32.308Z,10.19
2018-11-05T19:15:02.723Z,10.13
2018-11-05T19:17:33.076Z,10.11
2018-11-05T19:20:03.513Z,10.07
2018-11-05T19:22:33.803Z,10.00
2018-11-05T19:25:04.169Z,9.94
2018-11-05T19:27:34.543Z,9.88
2018-11-05T19:30:06.572Z,9.82
2018-11-05T19:32:43.647Z,9.78
2018-11-05T19:35:14.277Z,9.69
2018-11-05T19:37:44.482Z,9.61
2018-11-05T19:43:08.751Z,9.41
2018-11-05T19:45:38.956Z,9.31
2018-11-05T19:48:09.325Z,9.16
2018-11-05T19:50:39.857Z,9.07
2018-11-05T19:53:10.144Z,9.02
2018-11-05T19:55:40.364Z,8.96
2018-11-05T19:58:10.747Z,8.89
2018-11-05T20:00:40.997Z,8.85
2018-11-05T20:03:11.345Z,8.82
2018-11-05T20:05:41.659Z,8.86
2018-11-05T20:08:12.132Z,8.91
2018-11-05T20:10:42.436Z,9.04
2018-11-05T20:13:13.421Z,9.00
2018-11-05T20:15:43.756Z,8.97
2018-11-05T20:18:14.154Z,8.93
2018-11-05T20:20:44.521Z,8.84
2018-11-05T20:23:14.823Z,8.65
2018-11-05T20:25:45.140Z,8.58
2018-11-05T20:28:15.458Z,8.59
2018-11-05T20:30:45.803Z,8.67
2018-11-05T20:33:16.333Z,8.67
2018-11-05T20:35:46.411Z,8.73
2018-11-05T20:38:16.901Z,8.73
2018-11-05T20:40:47.067Z,8.71
2018-11-05T20:43:17.272Z,8.70
2018-11-05T20:45:48.215Z,8.64
2018-11-05T20:48:18.499Z,8.57
2018-11-05T20:50:48.895Z,8.50
2018-11-05T20:53:19.273Z,8.46
2018-11-05T20:55:49.450Z,8.47
2018-11-05T20:58:19.787Z,8.47
2018-11-05T21:00:50.063Z,8.43
2018-11-05T21:03:20.410Z,8.38
2018-11-05T21:05:50.656Z,8.35
2018-11-05T21:08:20.964Z,8.33
2018-11-05T21:10:51.292Z,8.29
2018-11-05T21:13:21.458Z,8.29
2018-11-05T21:15:51.739Z,8.26
2018-11-05T21:18:22.909Z,8.26
2018-11-05T21:20:56.262Z,8.24
2018-11-05T21:23:26.460Z,8.21
2018-11-05T21:25:56.845Z,8.20
2018-11-05T21:28:27.240Z,8.16
2018-11-05T21:30:57.488Z,8.19
2018-11-05T21:33:27.765Z,8.21
2018-11-05T21:35:58.013Z,8.24
2018-11-05T21:38:28.260Z,8.23
2018-11-05T21:40:58.565Z,8.22
2018-11-05T21:43:28.862Z,8.19
2018-11-05T21:45:59.138Z,8.14
2018-11-05T21:48:29.451Z,8.09
2018-11-05T21:50:59.708Z,8.07
2018-11-05T21:53:29.923Z,8.07
2018-11-05T21:56:00.220Z,8.09
2018-11-05T21:58:30.544Z,8.09
2018-11-05T22:01:00.808Z,7.99
2018-11-05T22:03:31.065Z,7.91
2018-11-05T22:06:07.872Z,7.81
2018-11-05T22:08:38.074Z,7.73
2018-11-05T22:11:14.729Z,7.60
2018-11-05T22:13:44.884Z,7.55
2018-11-05T22:16:15.144Z,7.49
2018-11-05T22:18:45.394Z,7.38
2018-11-05T22:21:15.643Z,7.33
2018-11-05T22:23:45.892Z,7.31
2018-11-05T22:26:16.193Z,7.43
2018-11-05T22:28:46.488Z,7.54
2018-11-05T22:31:16.809Z,7.54
2018-11-05T22:33:46.988Z,7.53
2018-11-05T22:36:17.194Z,7.57
2018-11-05T22:38:47.437Z,7.64
2018-11-05T22:41:17.740Z,7.59
2018-11-05T22:43:48.002Z,7.58
2018-11-05T22:46:18.274Z,7.56
2018-11-05T22:48:48.600Z,7.47
2018-11-05T22:51:18.881Z,7.45
2018-11-05T22:53:49.066Z,7.41
2018-11-05T22:56:19.381Z,7.35
2018-11-05T22:58:49.648Z,7.30
2018-11-05T23:01:25.221Z,7.30
2018-11-05T23:03:55.448Z,7.25
2018-11-05T23:06:25.763Z,7.21
2018-11-05T23:08:56.096Z,7.13
2018-11-05T23:11:26.407Z,7.08
2018-11-05T23:13:56.669Z,6.95
2018-11-05T23:16:26.871Z,6.89
2018-11-05T23:18:57.211Z,6.85
2018-11-05T23:21:27.421Z,6.86
2018-11-05T23:23:57.589Z,6.78
2018-11-05T23:26:27.909Z,6.70
2018-11-05T23:28:58.277Z,6.72
2018-11-05T23:31:28.615Z,6.72
2018-11-05T23:33:58.993Z,6.64
2018-11-05T23:36:29.261Z,6.64
2018-11-05T23:38:59.588Z,6.70
2018-11-05T23:41:29.761Z,6.75
2018-11-05T23:43:59.983Z,6.79
2018-11-05T23:46:30.397Z,6.76
2018-11-05T23:49:00.665Z,6.66
2018-11-05T23:51:30.962Z,6.55
2018-11-05T23:54:01.461Z,6.40
2018-11-05T23:56:31.677Z,6.36
2018-11-05T23:59:01.912Z,6.37
